Time;durP1;ratioP1;P1;durP2;ratioP2;P2;SDS_P1;SDS_P2;PMS_P1;PMS_P2;Temp;Humidity;BMP_temperature;BMP_pressure;BME280_temperature;BME280_humidity;BME280_pressure;Samples;Min_cycle;Max_cycle;Signal;HPM_P1;HPM_P2
2022/07/22 00:01:03;;;;;;;20.88;7.07;;;;;;;;;;5039918;28;20049;-68
2022/07/22 00:03:29;;;;;;;20.73;7.05;;;;;;;;;;5057108;28;20120;-68
2022/07/22 00:05:55;;;;;;;26.00;6.10;;;;;;;;;;5056529;28;20119;-68
2022/07/22 00:08:21;;;;;;;;;;;;;;;;;;5040106;28;20053;-76
2022/07/22 00:10:47;;;;;;;18.08;6.13;;;;;;;;;;5056393;28;19921;-68
2022/07/22 00:13:13;;;;;;;23.60;6.03;;;;;;;;;;5056631;28;20052;-68
2022/07/22 00:15:39;;;;;;;16.60;5.38;;;;;;;;;;5056224;28;20051;-68
2022/07/22 00:18:05;;;;;;;21.45;5.65;;;;;;;;;;5039190;28;20111;-68
2022/07/22 00:20:32;;;;;;;22.67;5.88;;;;;;;;;;5038636;28;20045;-70
2022/07/22 00:22:58;;;;;;;;;;;;;;;;;;5056625;28;20056;-68
2022/07/22 00:25:24;;;;;;;18.60;5.50;;;;;;;;;;5056099;28;19921;-71
2022/07/22 00:27:50;;;;;;;;;;;;;;;;;;5057175;28;20052;-67
2022/07/22 00:30:16;;;;;;;18.20;5.38;;;;;;;;;;5021433;28;20295;-67
2022/07/22 00:32:42;;;;;;;17.33;4.80;;;;;;;;;;5056379;28;20465;-68
2022/07/22 00:35:08;;;;;;;12.90;4.53;;;;;;;;;;5056493;28;20112;-68
2022/07/22 00:37:34;;;;;;;18.77;5.00;;;;;;;;;;5038621;28;20049;-67
2022/07/22 00:40:00;;;;;;;;;;;;;;;;;;5056298;28;20056;-67
2022/07/22 00:42:26;;;;;;;14.68;4.53;;;;;;;;;;5055854;28;19920;-69
2022/07/22 00:44:52;;;;;;;16.02;4.38;;;;;;;;;;5055780;28;20075;-68
2022/07/22 00:47:18;;;;;;;22.05;4.57;;;;;;;;;;5056185;28;20473;-68
2022/07/22 00:49:44;;;;;;;17.00;4.28;;;;;;;;;;5058129;28;20048;-68
2022/07/22 00:52:11;;;;;;;17.95;4.47;;;;;;;;;;5056807;28;20113;-69
2022/07/22 00:54:36;;;;;;;;;;;;;;;;;;5056854;28;20420;-68
2022/07/22 00:57:03;;;;;;;17.42;4.68;;;;;;;;;;5055662;28;19921;-69
2022/07/22 00:59:29;;;;;;;;;;;;;;;;;;5038594;28;20056;-69
2022/07/22 01:01:55;;;;;;;16.27;4.20;;;;;;;;;;5055525;28;20019;-68
2022/07/22 01:04:21;;;;;;;;;;;;;;;;;;5021837;28;20044;-69
2022/07/22 01:06:47;;;;;;;14.82;4.65;;;;;;;;;;5037867;28;19921;-69
2022/07/22 01:09:14;;;;;;;13.35;4.07;;;;;;;;;;5055342;28;20476;-69
2022/07/22 01:11:41;;;;;;;14.90;4.65;;;;;;;;;;5054948;28;20443;-68
2022/07/22 01:14:07;;;;;;;17.00;4.43;;;;;;;;;;5038388;28;20057;-69
2022/07/22 01:16:33;;;;;;;17.95;4.18;;;;;;;;;;5055630;28;20138;-68
2022/07/22 01:18:59;;;;;;;14.00;4.18;;;;;;;;;;5055164;28;20040;-68
2022/07/22 01:21:25;;;;;;;;;;;;;;;;;;5055651;28;20056;-69
2022/07/22 01:23:51;;;;;;;18.10;3.72;;;;;;;;;;5055126;28;20279;-69
2022/07/22 01:26:17;;;;;;;15.85;3.75;;;;;;;;;;5055077;28;20045;-68
2022/07/22 01:28:43;;;;;;;14.88;3.97;;;;;;;;;;5037400;28;20055;-68
2022/07/22 01:31:09;;;;;;;;;;;;;;;;;;5055841;28;20056;-67
2022/07/22 01:33:36;;;;;;;19.90;4.88;;;;;;;;;;5037262;28;19921;-67
2022/07/22 01:36:03;;;;;;;16.65;3.58;;;;;;;;;;5054823;28;20041;-69
2022/07/22 01:38:29;;;;;;;13.55;3.88;;;;;;;;;;5055610;28;20045;-69
2022/07/22 01:40:55;;;;;;;13.48;3.80;;;;;;;;;;5054759;28;20041;-70
2022/07/22 01:43:21;;;;;;;13.45;3.28;;;;;;;;;;5054785;28;20053;-69
2022/07/22 01:45:47;;;;;;;;;;;;;;;;;;5055055;28;20041;-69
2022/07/22 01:48:13;;;;;;;11.20;3.38;;;;;;;;;;5054655;28;19921;-70
2022/07/22 01:50:39;;;;;;;10.23;3.08;;;;;;;;;;5037010;28;20071;-69
2022/07/22 01:53:05;;;;;;;13.45;3.50;;;;;;;;;;5054583;28;20053;-68
2022/07/22 01:55:31;;;;;;;13.10;3.05;;;;;;;;;;5054449;28;20048;-68
2022/07/22 01:57:57;;;;;;;;;;;;;;;;;;5054865;28;20048;-70
2022/07/22 02:00:24;;;;;;;13.00;3.72;;;;;;;;;;5054432;28;19920;-70
2022/07/22 02:02:50;;;;;;;12.45;3.10;;;;;;;;;;5054615;28;20048;-69
2022/07/22 02:05:16;;;;;;;11.20;3.15;;;;;;;;;;5054370;28;20045;-70
2022/07/22 02:07:42;;;;;;;;;;;;;;;;;;5037757;28;20369;-70
2022/07/22 02:10:08;;;;;;;12.80;3.35;;;;;;;;;;5036374;28;19927;-71
2022/07/22 02:12:34;;;;;;;;;;;;;;;;;;5054534;28;20049;-69
2022/07/22 02:15:00;;;;;;;12.65;3.17;;;;;;;;;;5053418;28;19990;-68
2022/07/22 02:17:27;;;;;;;15.25;3.50;;;;;;;;;;5054002;28;20094;-70
2022/07/22 02:19:53;;;;;;;11.48;3.40;;;;;;;;;;5053881;28;20106;-70
2022/07/22 02:22:19;;;;;;;15.73;3.67;;;;;;;;;;5053966;28;20045;-68
2022/07/22 02:24:45;;;;;;;13.63;3.60;;;;;;;;;;5036176;28;20106;-70
2022/07/22 02:27:12;;;;;;;14.70;4.45;;;;;;;;;;5053695;28;20049;-69
2022/07/22 02:29:38;;;;;;;13.40;3.70;;;;;;;;;;5053995;28;20055;-70
2022/07/22 02:32:04;;;;;;;;;;;;;;;;;;5055057;28;20057;-70
2022/07/22 02:34:30;;;;;;;10.20;3.42;;;;;;;;;;5053852;28;19943;-70
2022/07/22 02:36:56;;;;;;;14.90;3.28;;;;;;;;;;5053748;28;20048;-71
2022/07/22 02:39:22;;;;;;;13.50;3.33;;;;;;;;;;5036069;28;20149;-67
2022/07/22 02:41:48;;;;;;;14.68;3.38;;;;;;;;;;5053575;28;20048;-69
2022/07/22 02:44:14;;;;;;;10.93;3.20;;;;;;;;;;5035693;28;20049;-70
2022/07/22 02:46:40;;;;;;;11.45;3.58;;;;;;;;;;5053426;28;20206;-72
2022/07/22 02:49:06;;;;;;;16.00;3.30;;;;;;;;;;5053354;28;20055;-70
2022/07/22 02:51:33;;;;;;;17.48;3.63;;;;;;;;;;5053416;28;20045;-69
2022/07/22 02:53:59;;;;;;;13.80;3.25;;;;;;;;;;5053357;28;20102;-69
2022/07/22 02:56:25;;;;;;;10.05;3.00;;;;;;;;;;5053327;28;20555;-69
2022/07/22 02:58:52;;;;;;;13.55;3.15;;;;;;;;;;5053283;28;20049;-70
2022/07/22 03:01:19;;;;;;;10.88;3.17;;;;;;;;;;5053305;28;20053;-69
2022/07/22 03:03:45;;;;;;;14.75;3.10;;;;;;;;;;5053104;28;20056;-70
2022/07/22 03:06:11;;;;;;;11.32;2.80;;;;;;;;;;5035572;28;20143;-68
2022/07/22 03:08:38;;;;;;;10.32;3.05;;;;;;;;;;5053158;28;20102;-69
2022/07/22 03:11:05;;;;;;;13.00;3.00;;;;;;;;;;5053655;28;20127;-69
2022/07/22 03:13:31;;;;;;;13.02;3.08;;;;;;;;;;5051933;28;20051;-69
2022/07/22 03:15:57;;;;;;;;;;;;;;;;;;5053420;28;20512;-70
2022/07/22 03:18:23;;;;;;;12.93;3.03;;;;;;;;;;5053115;28;19921;-69
2022/07/22 03:20:49;;;;;;;15.48;3.33;;;;;;;;;;5053600;28;20088;-69
2022/07/22 03:23:15;;;;;;;13.80;3.17;;;;;;;;;;5053090;28;20501;-70
2022/07/22 03:25:41;;;;;;;12.98;3.22;;;;;;;;;;5053718;28;20067;-68
2022/07/22 03:28:07;;;;;;;11.82;2.80;;;;;;;;;;5056670;28;20080;-69
2022/07/22 03:30:33;;;;;;;12.70;3.20;;;;;;;;;;5056581;28;20048;-70
2022/07/22 03:33:00;;;;;;;10.73;3.05;;;;;;;;;;5056439;28;20048;-68
2022/07/22 03:35:26;;;;;;;15.38;3.40;;;;;;;;;;5055986;28;20485;-69
2022/07/22 03:37:52;;;;;;;;;;;;;;;;;;5056610;28;20143;-69
2022/07/22 03:40:18;;;;;;;13.48;3.45;;;;;;;;;;5038880;28;20368;-69
2022/07/22 03:42:44;;;;;;;12.10;3.35;;;;;;;;;;5038210;28;20083;-70
2022/07/22 03:45:10;;;;;;;13.45;3.47;;;;;;;;;;5055796;28;20128;-69
2022/07/22 03:47:37;;;;;;;13.80;3.60;;;;;;;;;;5055792;28;20048;-69
2022/07/22 03:50:03;;;;;;;;;;;;;;;;;;5056435;28;20465;-69
2022/07/22 03:52:29;;;;;;;16.02;3.70;;;;;;;;;;5038003;28;20422;-69
2022/07/22 03:54:55;;;;;;;14.57;3.58;;;;;;;;;;5055052;28;20128;-71
2022/07/22 03:57:22;;;;;;;11.32;3.00;;;;;;;;;;5055299;28;20102;-70
2022/07/22 03:59:48;;;;;;;;;;;;;;;;;;5055664;28;20048;-69
2022/07/22 04:02:14;;;;;;;13.98;3.33;;;;;;;;;;5054885;28;19920;-69
2022/07/22 04:04:40;;;;;;;;;;;;;;;;;;5055352;28;20036;-70
2022/07/22 04:07:06;;;;;;;15.20;3.45;;;;;;;;;;5036641;28;20003;-70
2022/07/22 04:09:32;;;;;;;14.30;3.60;;;;;;;;;;5054495;28;20051;-70
2022/07/22 04:11:58;;;;;;;14.30;3.22;;;;;;;;;;5054567;28;20088;-70
2022/07/22 04:14:24;;;;;;;13.77;3.13;;;;;;;;;;5054186;28;20480;-70
2022/07/22 04:16:50;;;;;;;15.25;3.67;;;;;;;;;;5054431;28;20052;-69
2022/07/22 04:19:16;;;;;;;15.73;3.50;;;;;;;;;;5054351;28;20560;-69
2022/07/22 04:21:42;;;;;;;14.82;3.50;;;;;;;;;;5036623;28;20045;-70
2022/07/22 04:24:09;;;;;;;13.07;3.55;;;;;;;;;;5036596;28;20044;-70
2022/07/22 04:26:36;;;;;;;;;;;;;;;;;;5054590;28;20449;-68
2022/07/22 04:29:02;;;;;;;15.30;3.92;;;;;;;;;;5054245;28;19921;-70
2022/07/22 04:31:28;;;;;;;11.23;3.10;;;;;;;;;;5036449;28;20049;-70
2022/07/22 04:33:54;;;;;;;8.75;2.88;;;;;;;;;;5037213;28;20056;-82
2022/07/22 04:36:20;;;;;;;12.60;3.30;;;;;;;;;;5036087;28;20048;-68
2022/07/22 04:38:46;;;;;;;13.00;2.92;;;;;;;;;;5053971;28;20049;-69
2022/07/22 04:41:12;;;;;;;12.13;3.20;;;;;;;;;;5053915;28;20049;-69
2022/07/22 04:43:38;;;;;;;10.68;3.25;;;;;;;;;;5036285;28;20060;-68
2022/07/22 04:46:05;;;;;;;15.43;3.60;;;;;;;;;;5053728;28;20438;-69
2022/07/22 04:48:31;;;;;;;;;;;;;;;;;;5036686;28;20056;-70
2022/07/22 04:51:00;;;;;;;16.40;3.60;;;;;;;;;;5019869;28;19942;-76
2022/07/22 04:53:27;;;;;;;15.90;3.25;;;;;;;;;;5053607;28;20047;-69
2022/07/22 04:55:53;;;;;;;13.00;3.15;;;;;;;;;;5054507;28;20099;-69
2022/07/22 04:58:19;;;;;;;;;;;;;;;;;;5054041;28;20047;-70
2022/07/22 05:00:46;;;;;;;12.20;2.95;;;;;;;;;;5053449;28;19924;-70
2022/07/22 05:03:12;;;;;;;14.98;3.30;;;;;;;;;;5053368;28;20099;-70
2022/07/22 05:05:39;;;;;;;11.82;3.40;;;;;;;;;;5053432;28;20088;-71
2022/07/22 05:08:05;;;;;;;12.75;3.08;;;;;;;;;;5053313;28;20041;-69
2022/07/22 05:10:32;;;;;;;;;;;;;;;;;;5054570;28;20504;-70
2022/07/22 05:12:58;;;;;;;9.05;2.65;;;;;;;;;;5053254;28;20375;-71
2022/07/22 05:15:24;;;;;;;12.65;2.95;;;;;;;;;;5052648;28;20041;-69
2022/07/22 05:17:50;;;;;;;10.93;3.08;;;;;;;;;;5053574;28;20088;-70
2022/07/22 05:20:16;;;;;;;;;;;;;;;;;;5053740;28;20132;-71
2022/07/22 05:22:42;;;;;;;11.45;2.83;;;;;;;;;;5054025;28;20438;-70
2022/07/22 05:25:09;;;;;;;13.10;3.35;;;;;;;;;;5053089;28;20045;-70
2022/07/22 05:27:35;;;;;;;11.32;2.58;;;;;;;;;;5053007;28;20137;-70
2022/07/22 05:30:01;;;;;;;11.55;3.00;;;;;;;;;;5052775;28;20535;-84
2022/07/22 05:32:27;;;;;;;12.40;2.90;;;;;;;;;;5053038;28;20045;-71
2022/07/22 05:34:53;;;;;;;;;;;;;;;;;;5054045;28;20056;-70
2022/07/22 05:37:19;;;;;;;10.80;3.00;;;;;;;;;;5035525;28;19920;-71
2022/07/22 05:39:45;;;;;;;11.32;2.78;;;;;;;;;;5053242;28;20135;-70
2022/07/22 05:42:11;;;;;;;14.27;3.08;;;;;;;;;;5035427;28;20435;-71
2022/07/22 05:44:37;;;;;;;15.70;3.30;;;;;;;;;;5035563;28;20139;-70
2022/07/22 05:47:04;;;;;;;11.88;3.22;;;;;;;;;;5053029;28;20127;-75
2022/07/22 05:49:30;;;;;;;10.85;2.92;;;;;;;;;;5052818;28;20048;-70
2022/07/22 05:52:00;;;;;;;11.63;3.10;;;;;;;;;;5052930;28;20049;-69
2022/07/22 05:54:26;;;;;;;13.00;2.97;;;;;;;;;;5052767;28;20106;-70
2022/07/22 05:56:52;;;;;;;12.35;3.00;;;;;;;;;;5035198;28;20118;-70
2022/07/22 05:59:18;;;;;;;13.68;2.95;;;;;;;;;;5018757;28;20049;-70
2022/07/22 06:01:44;;;;;;;10.18;3.15;;;;;;;;;;5053265;28;20128;-70
2022/07/22 06:04:10;;;;;;;13.23;2.92;;;;;;;;;;5035053;28;20049;-70
2022/07/22 06:06:36;;;;;;;12.82;3.42;;;;;;;;;;5052590;28;20134;-70
2022/07/22 06:09:02;;;;;;;13.60;3.50;;;;;;;;;;5052486;28;20045;-70
2022/07/22 06:11:28;;;;;;;13.60;3.25;;;;;;;;;;5052466;28;20045;-70
2022/07/22 06:13:54;;;;;;;13.57;3.08;;;;;;;;;;5052601;28;20056;-70
2022/07/22 06:16:20;;;;;;;11.02;3.20;;;;;;;;;;5051643;28;20044;-69
2022/07/22 06:18:46;;;;;;;10.88;3.17;;;;;;;;;;5034925;28;20056;-70
2022/07/22 06:21:12;;;;;;;12.77;2.97;;;;;;;;;;5052636;28;20052;-70
2022/07/22 06:23:38;;;;;;;11.80;3.30;;;;;;;;;;5034701;28;20084;-72
2022/07/22 06:26:04;;;;;;;11.00;2.80;;;;;;;;;;5052362;28;20045;-70
2022/07/22 06:28:31;;;;;;;11.80;3.25;;;;;;;;;;5034609;28;20048;-70
2022/07/22 06:30:57;;;;;;;15.02;3.00;;;;;;;;;;5052750;28;20092;-70
2022/07/22 06:33:23;;;;;;;;;;;;;;;;;;5035118;28;20150;-71
2022/07/22 06:35:49;;;;;;;16.63;3.08;;;;;;;;;;5052113;28;19921;-71
2022/07/22 06:38:16;;;;;;;11.60;3.30;;;;;;;;;;5051890;28;20087;-72
2022/07/22 06:40:42;;;;;;;13.85;3.05;;;;;;;;;;5051766;28;20504;-71
2022/07/22 06:43:08;;;;;;;13.68;3.28;;;;;;;;;;5035226;28;20049;-69
2022/07/22 06:45:34;;;;;;;14.32;3.17;;;;;;;;;;5052013;28;20052;-69
2022/07/22 06:48:01;;;;;;;8.88;2.78;;;;;;;;;;5052211;28;20045;-69
2022/07/22 06:50:27;;;;;;;10.40;3.00;;;;;;;;;;5052603;28;20045;-70
2022/07/22 06:52:53;;;;;;;13.02;3.30;;;;;;;;;;5052082;28;20045;-70
2022/07/22 06:55:19;;;;;;;13.20;3.03;;;;;;;;;;5051835;28;20037;-71
2022/07/22 06:57:45;;;;;;;16.42;2.90;;;;;;;;;;5051787;28;20131;-70
2022/07/22 07:00:12;;;;;;;11.98;2.55;;;;;;;;;;5034404;28;20141;-71
2022/07/22 07:02:38;;;;;;;10.63;2.72;;;;;;;;;;5052724;28;20056;-71
2022/07/22 07:05:04;;;;;;;8.15;2.42;;;;;;;;;;5051515;28;20060;-70
2022/07/22 07:07:30;;;;;;;12.45;2.97;;;;;;;;;;5052303;28;20048;-70
2022/07/22 07:09:57;;;;;;;10.75;3.03;;;;;;;;;;5034523;28;20045;-69
2022/07/22 07:12:23;;;;;;;11.23;2.85;;;;;;;;;;5051237;28;20377;-71
2022/07/22 07:14:49;;;;;;;;;;;;;;;;;;5052202;28;20155;-71
2022/07/22 07:17:15;;;;;;;9.55;2.20;;;;;;;;;;5052668;28;19968;-74
2022/07/22 07:19:41;;;;;;;8.95;2.53;;;;;;;;;;5051382;28;20095;-71
2022/07/22 07:22:07;;;;;;;10.82;2.20;;;;;;;;;;5052110;28;20055;-70
2022/07/22 07:24:33;;;;;;;10.00;2.40;;;;;;;;;;5052100;28;20041;-69
2022/07/22 07:26:59;;;;;;;10.40;2.38;;;;;;;;;;5052070;28;20045;-68
2022/07/22 07:29:25;;;;;;;10.27;2.60;;;;;;;;;;5051441;28;20049;-71
2022/07/22 07:31:51;;;;;;;11.60;2.47;;;;;;;;;;5052312;28;20378;-70
2022/07/22 07:34:17;;;;;;;;;;;;;;;;;;5035486;28;20049;-72
2022/07/22 07:36:43;;;;;;;9.02;2.50;;;;;;;;;;5052393;28;19920;-71
2022/07/22 07:39:09;;;;;;;11.63;2.50;;;;;;;;;;5034782;28;20052;-71
2022/07/22 07:41:36;;;;;;;14.02;2.33;;;;;;;;;;5051696;28;20045;-69
2022/07/22 07:44:02;;;;;;;8.10;2.42;;;;;;;;;;5033735;28;20104;-71
2022/07/22 07:46:28;;;;;;;11.88;2.92;;;;;;;;;;5051372;28;20063;-71
2022/07/22 07:48:54;;;;;;;8.52;2.40;;;;;;;;;;5051846;28;20102;-69
2022/07/22 07:51:20;;;;;;;9.90;2.50;;;;;;;;;;5051911;28;20048;-72
2022/07/22 07:53:46;;;;;;;10.98;2.60;;;;;;;;;;5051991;28;20072;-69
2022/07/22 07:56:12;;;;;;;9.27;2.70;;;;;;;;;;5034109;28;20121;-72
2022/07/22 07:58:39;;;;;;;13.55;3.17;;;;;;;;;;5033671;28;20049;-72
2022/07/22 08:01:05;;;;;;;11.10;2.30;;;;;;;;;;5049939;28;20049;-70
2022/07/22 08:03:31;;;;;;;9.38;2.28;;;;;;;;;;5033596;28;20051;-71
2022/07/22 08:05:59;;;;;;;11.57;2.40;;;;;;;;;;5050850;28;20599;-72
2022/07/22 08:08:25;;;;;;;8.80;2.63;;;;;;;;;;5050941;28;20074;-72
2022/07/22 08:10:51;;;;;;;;;;;;;;;;;;5033693;28;20053;-71
2022/07/22 08:13:18;;;;;;;12.05;2.42;;;;;;;;;;5053948;28;19920;-70
2022/07/22 08:15:44;;;;;;;;;;;;;;;;;;5054659;28;20098;-69
2022/07/22 08:18:10;;;;;;;7.10;2.38;;;;;;;;;;5054712;28;20011;-70
2022/07/22 08:20:36;;;;;;;10.10;2.28;;;;;;;;;;5037203;28;20136;-71
2022/07/22 08:23:02;;;;;;;10.50;2.40;;;;;;;;;;5037264;28;20056;-71
2022/07/22 08:25:28;;;;;;;;;;;;;;;;;;5055358;28;20041;-70
2022/07/22 08:27:54;;;;;;;10.20;2.28;;;;;;;;;;5054775;28;20015;-70
2022/07/22 08:30:23;;;;;;;8.80;2.42;;;;;;;;;;5054592;28;20469;-70
2022/07/22 08:32:49;;;;;;;9.30;2.50;;;;;;;;;;5036725;28;20045;-71
2022/07/22 08:35:15;;;;;;;;;;;;;;;;;;5037109;28;20053;-70
2022/07/22 08:37:41;;;;;;;11.95;2.80;;;;;;;;;;5054815;28;19927;-71
2022/07/22 08:40:08;;;;;;;15.32;2.72;;;;;;;;;;5036933;28;20111;-72
2022/07/22 08:42:39;;;;;;;11.43;2.58;;;;;;;;;;5036633;28;20045;-72
2022/07/22 08:45:05;;;;;;;14.25;3.15;;;;;;;;;;5054758;28;20135;-68
2022/07/22 08:47:31;;;;;;;10.77;2.60;;;;;;;;;;5054248;28;20045;-68
2022/07/22 08:49:57;;;;;;;11.60;2.40;;;;;;;;;;5054138;28;20492;-68
2022/07/22 08:52:23;;;;;;;9.05;2.38;;;;;;;;;;5036492;28;20144;-67
2022/07/22 08:54:49;;;;;;;8.73;2.33;;;;;;;;;;5054026;28;20041;-69
2022/07/22 08:57:15;;;;;;;10.55;2.72;;;;;;;;;;5036344;28;20088;-68
2022/07/22 08:59:55;;;;;;;9.55;2.50;;;;;;;;;;5036362;28;20461;-68
2022/07/22 09:02:21;;;;;;;13.63;2.40;;;;;;;;;;5054143;28;20087;-68
2022/07/22 09:04:50;;;;;;;12.07;2.40;;;;;;;;;;5053679;28;20098;-68
2022/07/22 09:07:28;;;;;;;15.13;3.15;;;;;;;;;;5053845;28;20481;-71
2022/07/22 09:09:55;;;;;;;14.02;2.80;;;;;;;;;;5053698;28;20045;-70
2022/07/22 09:12:22;;;;;;;;;;;;;;;;;;5036651;28;20139;-68
2022/07/22 09:14:49;;;;;;;14.15;2.97;;;;;;;;;;5053574;28;19927;-70
2022/07/22 09:17:26;;;;;;;10.60;2.28;;;;;;;;;;5054140;28;20045;-70
2022/07/22 09:19:52;;;;;;;9.98;2.42;;;;;;;;;;5035976;28;20098;-69
2022/07/22 09:22:34;;;;;;;10.40;2.45;;;;;;;;;;5036687;28;20048;-70
2022/07/22 09:25:27;;;;;;;9.68;2.45;;;;;;;;;;5052516;28;20094;-70
2022/07/22 09:27:54;;;;;;;12.82;3.17;;;;;;;;;;5050059;28;20542;-70
2022/07/22 09:30:21;;;;;;;9.93;2.50;;;;;;;;;;5052020;28;20202;-71
2022/07/22 09:32:48;;;;;;;9.85;2.50;;;;;;;;;;5036083;28;20432;-71
2022/07/22 09:35:14;;;;;;;9.88;2.83;;;;;;;;;;5052536;28;20040;-69
2022/07/22 09:37:49;;;;;;;9.82;2.40;;;;;;;;;;5053629;28;20048;-70
2022/07/22 09:40:16;;;;;;;11.52;2.70;;;;;;;;;;5053116;28;20088;-69
2022/07/22 09:42:47;;;;;;;7.88;2.17;;;;;;;;;;5053128;28;20041;-70
2022/07/22 09:45:13;;;;;;;13.80;2.50;;;;;;;;;;5036237;28;20137;-69
2022/07/22 09:47:39;;;;;;;;;;;;;;;;;;5036219;28;20051;-71
2022/07/22 09:50:14;;;;;;;9.45;2.55;;;;;;;;;;5053937;28;20011;-71
2022/07/22 09:52:42;;;;;;;12.45;2.40;;;;;;;;;;5036048;28;20128;-70
2022/07/22 09:55:08;;;;;;;13.45;2.50;;;;;;;;;;5052923;28;20048;-70
2022/07/22 09:57:34;;;;;;;9.38;2.30;;;;;;;;;;5035466;28;20412;-81
2022/07/22 10:00:00;;;;;;;;;;;;;;;;;;5035962;28;20055;-68
2022/07/22 10:02:28;;;;;;;7.65;2.08;;;;;;;;;;5035356;28;20083;-69
2022/07/22 10:04:55;;;;;;;10.45;2.28;;;;;;;;;;5052652;28;20067;-68
2022/07/22 10:07:22;;;;;;;5.13;1.63;;;;;;;;;;5052876;28;20131;-71
2022/07/22 10:09:49;;;;;;;8.10;2.03;;;;;;;;;;5052661;28;20071;-71
2022/07/22 10:12:15;;;;;;;8.60;1.88;;;;;;;;;;5052860;28;20076;-69
2022/07/22 10:14:42;;;;;;;9.70;2.42;;;;;;;;;;5053266;28;20083;-72
2022/07/22 10:17:08;;;;;;;7.50;2.13;;;;;;;;;;5052516;28;20539;-70
2022/07/22 10:19:35;;;;;;;7.72;2.33;;;;;;;;;;5053309;28;20161;-70
2022/07/22 10:22:01;;;;;;;9.73;1.90;;;;;;;;;;5052765;28;20048;-70
2022/07/22 10:24:27;;;;;;;5.45;1.70;;;;;;;;;;5052635;28;20140;-72
2022/07/22 10:26:58;;;;;;;7.82;1.90;;;;;;;;;;5034956;28;20048;-68
2022/07/22 10:29:26;;;;;;;6.03;1.80;;;;;;;;;;5052187;28;20090;-70
2022/07/22 10:32:11;;;;;;;7.53;2.00;;;;;;;;;;5052849;28;20136;-68
2022/07/22 10:34:37;;;;;;;7.28;1.92;;;;;;;;;;5052142;28;20045;-70
2022/07/22 10:37:04;;;;;;;6.75;1.80;;;;;;;;;;5035333;28;20057;-70
2022/07/22 10:39:29;;;;;;;;;;;;;;;;;;5034995;28;20048;-71
2022/07/22 10:41:55;;;;;;;5.93;2.00;;;;;;;;;;5034477;28;19927;-68
2022/07/22 10:44:41;;;;;;;8.50;2.03;;;;;;;;;;5052089;28;20049;-68
2022/07/22 10:47:07;;;;;;;5.45;1.65;;;;;;;;;;5052088;28;20053;-70
2022/07/22 10:49:33;;;;;;;;;;;;;;;;;;5035476;28;20087;-69
2022/07/22 10:52:08;;;;;;;8.38;2.10;;;;;;;;;;5051821;28;19970;-69
2022/07/22 10:54:34;;;;;;;6.07;2.00;;;;;;;;;;5051891;28;20045;-69
2022/07/22 10:57:00;;;;;;;5.78;2.00;;;;;;;;;;5051901;28;20045;-69
2022/07/22 10:59:26;;;;;;;6.78;1.73;;;;;;;;;;5051915;28;20146;-68
2022/07/22 11:01:54;;;;;;;;;;;;;;;;;;5052948;28;20166;-67
2022/07/22 11:04:21;;;;;;;7.70;2.00;;;;;;;;;;5034325;28;20008;-69
2022/07/22 11:06:47;;;;;;;8.85;1.90;;;;;;;;;;5050562;28;20049;-68
2022/07/22 11:09:14;;;;;;;6.38;1.90;;;;;;;;;;5033943;28;20056;-69
2022/07/22 11:11:44;;;;;;;6.90;1.80;;;;;;;;;;5051918;28;20086;-69
2022/07/22 11:14:25;;;;;;;6.63;1.90;;;;;;;;;;5051788;28;20057;-70
2022/07/22 11:16:51;;;;;;;8.48;1.83;;;;;;;;;;5051803;28;20064;-69
2022/07/22 11:19:22;;;;;;;5.13;1.80;;;;;;;;;;5051426;28;20370;-67
2022/07/22 11:21:52;;;;;;;5.03;1.67;;;;;;;;;;5051427;28;20041;-68
2022/07/22 11:24:19;;;;;;;7.82;1.70;;;;;;;;;;5051552;28;20051;-69
2022/07/22 11:26:46;;;;;;;9.15;1.90;;;;;;;;;;5051651;28;20084;-77
2022/07/22 11:29:17;;;;;;;6.38;1.60;;;;;;;;;;5051623;28;20049;-70
2022/07/22 11:31:44;;;;;;;8.32;1.83;;;;;;;;;;5051547;28;20053;-67
2022/07/22 11:34:10;;;;;;;;;;;;;;;;;;5051812;28;20045;-70
2022/07/22 11:36:37;;;;;;;6.03;1.70;;;;;;;;;;5051809;28;19967;-68
2022/07/22 11:39:03;;;;;;;6.55;1.70;;;;;;;;;;5050890;28;20045;-68
2022/07/22 11:41:30;;;;;;;4.72;1.70;;;;;;;;;;5051532;28;20565;-69
2022/07/22 11:43:57;;;;;;;5.18;1.60;;;;;;;;;;5051231;28;20052;-71
2022/07/22 11:46:25;;;;;;;7.57;1.83;;;;;;;;;;5051479;28;20040;-70
2022/07/22 11:48:51;;;;;;;5.18;1.85;;;;;;;;;;5037906;28;20060;-69
2022/07/22 11:51:17;;;;;;;5.05;1.50;;;;;;;;;;5037651;28;20057;-68
2022/07/22 11:53:43;;;;;;;;;;;;;;;;;;5055694;28;20049;-68
2022/07/22 11:56:10;;;;;;;9.50;1.80;;;;;;;;;;5055137;28;20232;-72
2022/07/22 11:58:37;;;;;;;20.20;4.03;;;;;;;;;;5055236;28;20063;-70
2022/07/22 12:01:05;;;;;;;7.63;1.90;;;;;;;;;;5055100;28;20053;-70
2022/07/22 12:03:32;;;;;;;5.82;1.60;;;;;;;;;;5055148;28;20057;-67
2022/07/22 12:05:58;;;;;;;6.43;1.90;;;;;;;;;;5055009;28;20136;-69
2022/07/22 12:08:24;;;;;;;6.07;1.40;;;;;;;;;;5055670;28;20055;-69
2022/07/22 12:10:50;;;;;;;6.75;1.90;;;;;;;;;;5037327;28;20488;-71
2022/07/22 12:13:16;;;;;;;;;;;;;;;;;;5037708;28;20499;-69
2022/07/22 12:15:42;;;;;;;8.07;2.40;;;;;;;;;;5054912;28;19921;-70
2022/07/22 12:18:15;;;;;;;5.28;1.70;;;;;;;;;;5055498;28;20052;-69
2022/07/22 12:20:45;;;;;;;5.18;1.35;;;;;;;;;;5054782;28;20217;-70
2022/07/22 12:23:12;;;;;;;5.72;1.60;;;;;;;;;;5054683;28;20090;-69
2022/07/22 12:25:54;;;;;;;6.47;1.63;;;;;;;;;;5054693;28;20052;-69
2022/07/22 12:28:21;;;;;;;6.30;1.50;;;;;;;;;;5053501;28;20048;-69
2022/07/22 12:30:47;;;;;;;5.22;1.60;;;;;;;;;;5053185;28;20144;-68
2022/07/22 12:33:13;;;;;;;;;;;;;;;;;;5055164;28;20099;-70
2022/07/22 12:35:39;;;;;;;5.35;1.83;;;;;;;;;;5055225;28;20225;-69
2022/07/22 12:38:05;;;;;;;;;;;;;;;;;;5055292;28;20086;-70
2022/07/22 12:40:31;;;;;;;7.20;1.50;;;;;;;;;;5054993;28;20003;-68
2022/07/22 12:43:03;;;;;;;4.90;1.33;;;;;;;;;;5053151;28;20049;-70
2022/07/22 12:45:30;;;;;;;5.90;1.70;;;;;;;;;;5054288;28;20364;-68
2022/07/22 12:47:57;;;;;;;3.45;1.50;;;;;;;;;;5036572;28;20540;-71
2022/07/22 12:50:26;;;;;;;8.52;1.60;;;;;;;;;;5036554;28;20515;-70
2022/07/22 12:52:53;;;;;;;6.38;1.80;;;;;;;;;;5054616;28;20122;-70
2022/07/22 12:55:20;;;;;;;4.72;1.52;;;;;;;;;;5054028;28;20056;-69
2022/07/22 12:57:46;;;;;;;;;;;;;;;;;;5037236;28;20088;-70
2022/07/22 13:00:16;;;;;;;6.00;1.50;;;;;;;;;;5036406;28;20010;-70
2022/07/22 13:02:42;;;;;;;5.10;1.80;;;;;;;;;;5052842;28;20057;-69
2022/07/22 13:05:08;;;;;;;3.97;1.60;;;;;;;;;;5036888;28;20409;-69
2022/07/22 13:07:34;;;;;;;5.45;1.80;;;;;;;;;;5053840;28;20049;-69
2022/07/22 13:10:00;;;;;;;4.72;1.55;;;;;;;;;;5053743;28;20052;-69
2022/07/22 13:12:26;;;;;;;4.07;1.40;;;;;;;;;;5053856;28;20084;-68
2022/07/22 13:14:52;;;;;;;7.97;1.95;;;;;;;;;;5054364;28;20443;-69
2022/07/22 13:17:19;;;;;;;3.28;1.40;;;;;;;;;;5036772;28;20049;-69
2022/07/22 13:19:45;;;;;;;4.32;1.58;;;;;;;;;;5053680;28;20091;-70
2022/07/22 13:22:11;;;;;;;;;;;;;;;;;;5035961;28;20053;-69
2022/07/22 13:24:37;;;;;;;10.60;1.90;;;;;;;;;;5036224;28;19928;-69
2022/07/22 13:27:03;;;;;;;10.43;1.80;;;;;;;;;;5053911;28;20082;-70
2022/07/22 13:29:29;;;;;;;;;;;;;;;;;;5053717;28;20084;-70
2022/07/22 13:31:55;;;;;;;10.35;2.35;;;;;;;;;;5019342;28;19921;-68
2022/07/22 13:34:21;;;;;;;8.32;2.33;;;;;;;;;;5035878;28;20508;-67
2022/07/22 13:36:47;;;;;;;;;;;;;;;;;;5054078;28;20052;-70
2022/07/22 13:39:14;;;;;;;6.13;1.73;;;;;;;;;;5053296;28;20292;-69
2022/07/22 13:41:40;;;;;;;;;;;;;;;;;;5053700;28;20053;-68
2022/07/22 13:44:09;;;;;;;9.75;2.20;;;;;;;;;;5053748;28;19920;-69
2022/07/22 13:46:35;;;;;;;10.00;2.45;;;;;;;;;;5036239;28;20118;-68
2022/07/22 13:49:02;;;;;;;6.47;1.83;;;;;;;;;;5035466;28;20068;-70
2022/07/22 13:51:27;;;;;;;;;;;;;;;;;;5053220;28;20501;-68
2022/07/22 13:53:53;;;;;;;7.38;2.15;;;;;;;;;;5052627;28;19920;-67
2022/07/22 13:56:20;;;;;;;8.05;2.28;;;;;;;;;;5053341;28;20048;-68
2022/07/22 13:58:45;;;;;;;;;;;;;;;;;;5036356;28;20052;-68
2022/07/22 14:01:12;;;;;;;7.82;2.10;;;;;;;;;;5035222;28;19932;-69
2022/07/22 14:03:38;;;;;;;6.20;2.08;;;;;;;;;;5035961;28;20347;-69
2022/07/22 14:06:05;;;;;;;8.95;2.22;;;;;;;;;;5052721;28;20079;-74
2022/07/22 14:08:31;;;;;;;7.78;2.00;;;;;;;;;;5051399;28;20144;-69
2022/07/22 14:10:58;;;;;;;9.48;2.20;;;;;;;;;;5034882;28;20048;-68
2022/07/22 14:13:24;;;;;;;7.00;1.92;;;;;;;;;;5052530;28;20056;-69
2022/07/22 14:15:50;;;;;;;5.35;2.10;;;;;;;;;;5035459;28;20051;-70
2022/07/22 14:18:16;;;;;;;7.70;2.20;;;;;;;;;;5053288;28;20048;-70
2022/07/22 14:20:42;;;;;;;6.63;2.03;;;;;;;;;;5035646;28;20055;-69
2022/07/22 14:23:11;;;;;;;;;;;;;;;;;;5051689;28;20091;-69
2022/07/22 14:25:38;;;;;;;6.40;2.00;;;;;;;;;;5052688;28;19921;-68
2022/07/22 14:28:04;;;;;;;8.65;2.13;;;;;;;;;;5052342;28;20091;-68
2022/07/22 14:30:31;;;;;;;8.30;2.15;;;;;;;;;;5051931;28;20056;-69
2022/07/22 14:32:57;;;;;;;5.55;2.05;;;;;;;;;;5052109;28;20057;-69
2022/07/22 14:35:23;;;;;;;8.50;1.83;;;;;;;;;;5034443;28;20128;-69
2022/07/22 14:37:49;;;;;;;10.02;2.17;;;;;;;;;;5052810;28;20041;-69
2022/07/22 14:40:15;;;;;;;5.82;1.77;;;;;;;;;;5052028;28;20098;-70
2022/07/22 14:42:41;;;;;;;8.98;1.70;;;;;;;;;;5052502;28;20053;-69
2022/07/22 14:45:09;;;;;;;14.05;2.25;;;;;;;;;;5034506;28;20250;-71
2022/07/22 14:47:36;;;;;;;7.25;2.08;;;;;;;;;;5033962;28;20053;-71